createdAt,value
2018-03-14T00:00:28.024Z,1009.73
2018-03-14T00:01:55.340Z,1009.74
2018-03-14T00:03:22.535Z,1009.74
2018-03-14T00:04:49.709Z,1009.76
2018-03-14T00:06:16.949Z,1009.78
2018-03-14T00:07:44.192Z,1009.79
2018-03-14T00:09:11.522Z,1009.79
2018-03-14T00:10:38.623Z,1009.81
2018-03-14T00:12:05.853Z,1009.82
2018-03-14T00:13:33.101Z,1009.86
2018-03-14T00:15:00.229Z,1009.87
2018-03-14T00:16:27.316Z,1009.88
2018-03-14T00:17:54.594Z,1009.91
2018-03-14T00:19:21.978Z,1009.89
2018-03-14T00:20:49.188Z,1009.91
2018-03-14T00:22:16.558Z,1009.95
2018-03-14T00:23:43.595Z,1009.97
2018-03-14T00:25:10.867Z,1009.98
2018-03-14T00:26:38.125Z,1010.01
2018-03-14T00:28:05.221Z,1010.01
2018-03-14T00:29:32.556Z,1010.03
2018-03-14T00:30:59.725Z,1010.04
2018-03-14T00:32:27.062Z,1010.04
2018-03-14T00:33:54.313Z,1010.07
2018-03-14T00:35:21.379Z,1010.06
2018-03-14T00:36:48.624Z,1010.06
2018-03-14T00:38:15.899Z,1010.07
2018-03-14T00:39:43.249Z,1010.07
2018-03-14T00:41:10.437Z,1010.11
2018-03-14T00:42:37.691Z,1010.11
2018-03-14T00:44:04.901Z,1010.11
2018-03-14T00:45:32.155Z,1010.11
2018-03-14T00:46:59.427Z,1010.11
2018-03-14T00:48:26.738Z,1010.13
2018-03-14T00:49:53.926Z,1010.13
2018-03-14T00:51:21.228Z,1010.13
2018-03-14T00:52:48.406Z,1010.12
2018-03-14T00:54:15.561Z,1010.14
2018-03-14T00:55:42.726Z,1010.16
2018-03-14T00:57:09.772Z,1010.13
2018-03-14T00:58:37.031Z,1010.15
2018-03-14T01:00:04.001Z,1010.16
2018-03-14T01:01:31.284Z,1010.17
2018-03-14T01:02:58.382Z,1010.20
2018-03-14T01:04:25.678Z,1010.21
2018-03-14T01:05:52.837Z,1010.21
2018-03-14T01:07:20.009Z,1010.24
2018-03-14T01:08:47.246Z,1010.27
2018-03-14T01:10:14.392Z,1010.27
2018-03-14T01:11:41.621Z,1010.29
2018-03-14T01:13:08.827Z,1010.33
2018-03-14T01:14:35.995Z,1010.32
2018-03-14T01:16:03.097Z,1010.32
2018-03-14T01:17:30.358Z,1010.32
2018-03-14T01:18:57.548Z,1010.32
2018-03-14T01:20:24.852Z,1010.35
2018-03-14T01:21:52.133Z,1010.36
2018-03-14T01:23:19.502Z,1010.35
2018-03-14T01:24:46.425Z,1010.38
2018-03-14T01:26:13.622Z,1010.38
2018-03-14T01:27:40.875Z,1010.38
2018-03-14T01:29:08.108Z,1010.37
2018-03-14T01:30:35.362Z,1010.38
2018-03-14T01:32:02.502Z,1010.41
2018-03-14T01:33:29.611Z,1010.39
2018-03-14T01:34:56.903Z,1010.40
2018-03-14T01:36:24.038Z,1010.42
2018-03-14T01:37:51.140Z,1010.41
2018-03-14T01:39:18.521Z,1010.47
2018-03-14T01:40:45.540Z,1010.44
2018-03-14T01:42:12.603Z,1010.46
2018-03-14T01:43:39.924Z,1010.48
2018-03-14T01:45:06.990Z,1010.49
2018-03-14T01:46:34.079Z,1010.50
2018-03-14T01:48:01.353Z,1010.52
2018-03-14T01:49:28.296Z,1010.52
2018-03-14T01:50:55.439Z,1010.55
2018-03-14T01:52:22.613Z,1010.58
2018-03-14T01:53:49.860Z,1010.61
2018-03-14T01:55:17.072Z,1010.63
2018-03-14T01:56:44.218Z,1010.63
2018-03-14T01:58:11.463Z,1010.65
2018-03-14T01:59:38.527Z,1010.67
2018-03-14T02:01:05.510Z,1010.69
2018-03-14T02:02:32.478Z,1010.71
2018-03-14T02:03:59.778Z,1010.72
2018-03-14T02:05:26.941Z,1010.72
2018-03-14T02:06:54.210Z,1010.75
2018-03-14T02:08:21.358Z,1010.77
2018-03-14T02:09:48.676Z,1010.78
2018-03-14T02:11:15.932Z,1010.78
2018-03-14T02:12:43.077Z,1010.78
2018-03-14T02:14:10.335Z,1010.78
2018-03-14T02:15:37.588Z,1010.79
2018-03-14T02:17:04.755Z,1010.80
2018-03-14T02:18:31.881Z,1010.80
2018-03-14T02:19:58.944Z,1010.78
2018-03-14T02:21:26.264Z,1010.81
2018-03-14T02:22:53.563Z,1010.84
2018-03-14T02:24:20.709Z,1010.82
2018-03-14T02:25:47.981Z,1010.84
2018-03-14T02:27:15.309Z,1010.85
2018-03-14T02:28:42.452Z,1010.89
2018-03-14T02:30:09.633Z,1010.91
2018-03-14T02:31:36.776Z,1010.92
2018-03-14T02:33:03.673Z,1010.96
2018-03-14T02:34:30.993Z,1010.98
2018-03-14T02:35:58.088Z,1011.00
2018-03-14T02:37:25.190Z,1011.03
2018-03-14T02:38:52.447Z,1011.04
2018-03-14T02:40:19.584Z,1011.05
2018-03-14T02:41:46.811Z,1011.05
2018-03-14T02:43:13.987Z,1011.08
2018-03-14T02:44:41.197Z,1011.08
2018-03-14T02:46:08.419Z,1011.09
2018-03-14T02:47:35.406Z,1011.09
2018-03-14T02:49:02.656Z,1011.11
2018-03-14T02:50:29.841Z,1011.12
2018-03-14T02:51:57.205Z,1011.16
2018-03-14T02:53:24.425Z,1011.17
2018-03-14T02:54:51.677Z,1011.19
2018-03-14T02:56:19.036Z,1011.18
2018-03-14T02:57:46.221Z,1011.24
2018-03-14T02:59:13.596Z,1011.25
2018-03-14T03:00:40.545Z,1011.26
2018-03-14T03:02:07.847Z,1011.26
2018-03-14T03:03:34.819Z,1011.28
2018-03-14T03:05:02.203Z,1011.29
2018-03-14T03:06:29.422Z,1011.33
2018-03-14T03:07:56.561Z,1011.35
2018-03-14T03:09:23.646Z,1011.36
2018-03-14T03:10:50.936Z,1011.37
2018-03-14T03:12:18.036Z,1011.39
2018-03-14T03:13:45.194Z,1011.39
2018-03-14T03:15:12.453Z,1011.39
2018-03-14T03:16:39.745Z,1011.39
2018-03-14T03:18:06.911Z,1011.43
2018-03-14T03:19:33.878Z,1011.43
2018-03-14T03:21:00.994Z,1011.44
2018-03-14T03:22:28.366Z,1011.47
2018-03-14T03:23:55.600Z,1011.50
2018-03-14T03:25:22.700Z,1011.51
2018-03-14T03:26:49.868Z,1011.56
2018-03-14T03:28:17.024Z,1011.55
2018-03-14T03:29:44.097Z,1011.58
2018-03-14T03:31:11.403Z,1011.60
2018-03-14T03:32:38.542Z,1011.64
2018-03-14T03:34:05.665Z,1011.66
2018-03-14T03:35:32.999Z,1011.66
2018-03-14T03:37:00.172Z,1011.70
2018-03-14T03:38:27.407Z,1011.70
2018-03-14T03:39:54.506Z,1011.74
2018-03-14T03:41:21.672Z,1011.75
2018-03-14T03:42:48.973Z,1011.75
2018-03-14T03:44:16.162Z,1011.76
2018-03-14T03:45:43.182Z,1011.76
2018-03-14T03:47:10.378Z,1011.76
2018-03-14T03:48:37.555Z,1011.76
2018-03-14T03:50:04.813Z,1011.76
2018-03-14T03:51:31.952Z,1011.75
2018-03-14T03:52:59.242Z,1011.78
2018-03-14T03:54:26.525Z,1011.79
2018-03-14T03:55:53.789Z,1011.82
2018-03-14T03:57:21.118Z,1011.81
2018-03-14T03:58:48.267Z,1011.86
2018-03-14T04:00:15.443Z,1011.86
2018-03-14T04:01:42.636Z,1011.84
2018-03-14T04:03:09.873Z,1011.87
2018-03-14T04:04:37.164Z,1011.89
2018-03-14T04:06:04.105Z,1011.92
2018-03-14T04:07:31.356Z,1011.94
2018-03-14T04:08:58.558Z,1011.92
2018-03-14T04:10:25.868Z,1011.93
2018-03-14T04:11:53.225Z,1011.96
2018-03-14T04:13:20.458Z,1011.96
2018-03-14T04:14:47.621Z,1011.98
2018-03-14T04:16:14.786Z,1011.96
2018-03-14T04:17:42.015Z,1011.98
2018-03-14T04:19:09.259Z,1012.02
2018-03-14T04:20:36.256Z,1012.01
2018-03-14T04:22:03.439Z,1012.02
2018-03-14T04:23:30.789Z,1012.01
2018-03-14T04:24:58.069Z,1012.03
2018-03-14T04:26:25.530Z,1012.07
2018-03-14T04:27:52.637Z,1012.08
2018-03-14T04:29:19.933Z,1012.09
2018-03-14T04:30:47.091Z,1012.11
2018-03-14T04:32:14.398Z,1012.11
2018-03-14T04:33:41.616Z,1012.13
2018-03-14T04:35:08.675Z,1012.15
2018-03-14T04:36:35.842Z,1012.17
2018-03-14T04:38:03.080Z,1012.18
2018-03-14T04:39:30.424Z,1012.21
2018-03-14T04:40:57.695Z,1012.23
2018-03-14T04:42:24.845Z,1012.26
2018-03-14T04:43:52.085Z,1012.25
2018-03-14T04:45:19.385Z,1012.27
2018-03-14T04:46:46.591Z,1012.26
2018-03-14T04:48:13.945Z,1012.28
2018-03-14T04:49:41.073Z,1012.30
2018-03-14T04:51:08.240Z,1012.30
2018-03-14T04:52:35.431Z,1012.35
2018-03-14T04:54:02.773Z,1012.37
2018-03-14T04:55:29.886Z,1012.40
2018-03-14T04:56:57.242Z,1012.44
2018-03-14T04:58:24.496Z,1012.48
2018-03-14T04:59:51.545Z,1012.50
2018-03-14T05:01:18.972Z,1012.50
2018-03-14T05:02:45.932Z,1012.54
2018-03-14T05:04:13.290Z,1012.54
2018-03-14T05:05:40.506Z,1012.55
2018-03-14T05:07:07.695Z,1012.59
2018-03-14T05:08:34.982Z,1012.60
2018-03-14T05:10:02.041Z,1012.61
2018-03-14T05:11:29.282Z,1012.61
2018-03-14T05:12:56.490Z,1012.63
2018-03-14T05:14:23.660Z,1012.65
2018-03-14T05:15:50.838Z,1012.66
2018-03-14T05:17:18.057Z,1012.67
2018-03-14T05:18:45.268Z,1012.73
2018-03-14T05:20:12.482Z,1012.74
2018-03-14T05:21:39.676Z,1012.79
2018-03-14T05:23:06.832Z,1012.80
2018-03-14T05:24:33.959Z,1012.82
2018-03-14T05:26:01.178Z,1012.83
2018-03-14T05:27:28.270Z,1012.86
2018-03-14T05:28:55.504Z,1012.87
2018-03-14T05:30:22.903Z,1012.88
2018-03-14T05:31:50.135Z,1012.89
2018-03-14T05:33:17.372Z,1012.91
2018-03-14T05:34:44.713Z,1012.91
2018-03-14T05:36:11.662Z,1012.89
2018-03-14T05:37:38.928Z,1012.91
2018-03-14T05:39:06.020Z,1012.93
2018-03-14T05:40:33.249Z,1012.97
2018-03-14T05:42:00.668Z,1012.97
2018-03-14T05:43:28.007Z,1013.00
2018-03-14T05:44:55.048Z,1013.01
2018-03-14T05:46:22.190Z,1013.04
2018-03-14T05:47:49.586Z,1013.07
2018-03-14T05:49:16.928Z,1013.08
2018-03-14T05:50:44.106Z,1013.11
2018-03-14T05:52:11.243Z,1013.12
2018-03-14T05:53:38.379Z,1013.14
2018-03-14T05:55:05.401Z,1013.14
2018-03-14T05:56:32.528Z,1013.15
2018-03-14T05:57:59.825Z,1013.17
2018-03-14T05:59:27.011Z,1013.18
2018-03-14T06:00:54.111Z,1013.21
2018-03-14T06:02:21.382Z,1013.22
2018-03-14T06:03:48.552Z,1013.24
2018-03-14T06:05:15.742Z,1013.27
2018-03-14T06:06:43.036Z,1013.29
2018-03-14T06:08:10.223Z,1013.32
2018-03-14T06:09:37.371Z,1013.32
2018-03-14T06:11:04.546Z,1013.36
2018-03-14T06:12:31.903Z,1013.36
2018-03-14T06:13:59.040Z,1013.39
2018-03-14T06:15:26.382Z,1013.42
2018-03-14T06:16:53.592Z,1013.43
2018-03-14T06:18:20.787Z,1013.46
2018-03-14T06:19:48.041Z,1013.46
2018-03-14T06:21:15.070Z,1013.47
2018-03-14T06:22:42.248Z,1013.49
2018-03-14T06:24:09.307Z,1013.51
2018-03-14T06:25:36.546Z,1013.54
2018-03-14T06:27:03.712Z,1013.53
2018-03-14T06:28:31.145Z,1013.58
2018-03-14T06:29:58.420Z,1013.60
2018-03-14T06:31:25.510Z,1013.61
2018-03-14T06:32:52.653Z,1013.68
2018-03-14T06:34:19.840Z,1013.72
2018-03-14T06:35:46.978Z,1013.75
2018-03-14T06:37:14.056Z,1013.78
2018-03-14T06:38:41.314Z,1013.78
2018-03-14T06:40:08.388Z,1013.80
2018-03-14T06:41:35.548Z,1013.84
2018-03-14T06:43:02.940Z,1013.85
2018-03-14T06:44:30.209Z,1013.88
2018-03-14T06:45:57.307Z,1013.91
2018-03-14T06:47:24.623Z,1013.95
2018-03-14T06:48:51.875Z,1013.98
2018-03-14T06:50:19.023Z,1014.00
2018-03-14T06:51:46.363Z,1014.00
2018-03-14T06:53:13.395Z,1014.02
2018-03-14T06:54:40.457Z,1014.04
2018-03-14T06:56:07.610Z,1014.08
2018-03-14T06:57:34.557Z,1014.05
2018-03-14T06:59:01.758Z,1014.05
2018-03-14T07:00:28.991Z,1014.03
2018-03-14T07:01:56.119Z,1014.03
2018-03-14T07:03:23.371Z,1014.03
2018-03-14T07:04:50.845Z,1014.03
2018-03-14T07:06:17.870Z,1014.04
2018-03-14T07:07:45.232Z,1014.05
2018-03-14T07:09:12.429Z,1014.06
2018-03-14T07:10:39.630Z,1014.08
2018-03-14T07:12:06.902Z,1014.09
2018-03-14T07:13:33.753Z,1014.11
2018-03-14T07:15:00.973Z,1014.12
2018-03-14T07:16:28.245Z,1014.13
2018-03-14T07:17:55.418Z,1014.15
2018-03-14T07:19:22.600Z,1014.18
2018-03-14T07:20:49.905Z,1014.19
2018-03-14T07:22:17.212Z,1014.22
2018-03-14T07:23:44.257Z,1014.21
2018-03-14T07:25:11.331Z,1014.23
2018-03-14T07:26:38.390Z,1014.23
2018-03-14T07:28:05.509Z,1014.26
2018-03-14T07:29:32.801Z,1014.26
2018-03-14T07:31:00.119Z,1014.28
2018-03-14T07:32:27.488Z,1014.28
2018-03-14T07:33:54.861Z,1014.30
2018-03-14T07:35:22.063Z,1014.31
2018-03-14T07:36:49.056Z,1014.32
2018-03-14T07:38:16.257Z,1014.34
2018-03-14T07:39:43.280Z,1014.36
2018-03-14T07:41:10.452Z,1014.40
2018-03-14T07:42:37.830Z,1014.40
2018-03-14T07:44:04.594Z,1014.39
2018-03-14T07:45:31.766Z,1014.41
2018-03-14T07:46:59.017Z,1014.40
2018-03-14T07:48:26.230Z,1014.42
2018-03-14T07:49:53.584Z,1014.42
2018-03-14T07:51:20.708Z,1014.45
2018-03-14T07:52:47.989Z,1014.48
2018-03-14T07:54:15.177Z,1014.50
2018-03-14T07:55:42.304Z,1014.53
2018-03-14T07:57:09.487Z,1014.53
2018-03-14T07:58:36.611Z,1014.55
2018-03-14T08:00:03.550Z,1014.55
2018-03-14T08:01:30.897Z,1014.55
2018-03-14T08:02:57.932Z,1014.55
2018-03-14T08:04:25.249Z,1014.55
2018-03-14T08:05:52.369Z,1014.57
2018-03-14T08:07:19.589Z,1014.59
2018-03-14T08:08:46.914Z,1014.60
2018-03-14T08:10:14.236Z,1014.61
2018-03-14T08:11:41.456Z,1014.62
2018-03-14T08:13:08.624Z,1014.65
2018-03-14T08:14:35.886Z,1014.69
2018-03-14T08:16:03.122Z,1014.69
2018-03-14T08:17:30.323Z,1014.72
2018-03-14T08:18:57.482Z,1014.72
2018-03-14T08:20:24.666Z,1014.76
2018-03-14T08:21:51.761Z,1014.77
2018-03-14T08:23:19.022Z,1014.79
2018-03-14T08:24:46.478Z,1014.81
2018-03-14T08:26:13.466Z,1014.81
2018-03-14T08:27:40.632Z,1014.83
2018-03-14T08:29:07.911Z,1014.83
2018-03-14T08:30:35.099Z,1014.80
2018-03-14T08:32:02.276Z,1014.82
2018-03-14T08:33:29.585Z,1014.82
2018-03-14T08:34:56.734Z,1014.82
2018-03-14T08:36:23.691Z,1014.83
2018-03-14T08:37:50.893Z,1014.84
2018-03-14T08:39:18.168Z,1014.84
2018-03-14T08:40:45.455Z,1014.86
2018-03-14T08:42:12.568Z,1014.90
2018-03-14T08:43:39.942Z,1014.90
2018-03-14T08:45:06.986Z,1014.90
2018-03-14T08:46:34.160Z,1014.91
2018-03-14T08:48:01.380Z,1014.95
2018-03-14T08:49:28.443Z,1014.95
2018-03-14T08:50:55.857Z,1014.96
2018-03-14T08:52:22.863Z,1014.91
2018-03-14T08:53:50.095Z,1014.94
2018-03-14T08:55:17.119Z,1014.91
2018-03-14T08:56:44.315Z,1014.91
2018-03-14T08:58:11.412Z,1014.90
2018-03-14T08:59:38.597Z,1014.91
2018-03-14T09:01:05.689Z,1014.93
2018-03-14T09:02:32.808Z,1014.93
2018-03-14T09:04:00.100Z,1014.96
2018-03-14T09:05:27.387Z,1014.94
2018-03-14T09:06:54.705Z,1014.99
2018-03-14T09:08:21.907Z,1014.98
2018-03-14T09:09:49.154Z,1015.00
2018-03-14T09:11:16.357Z,1015.01
2018-03-14T09:12:43.788Z,1015.01
2018-03-14T09:14:10.882Z,1015.01
2018-03-14T09:15:38.301Z,1015.02
2018-03-14T09:17:05.459Z,1015.04
2018-03-14T09:18:32.799Z,1015.06
2018-03-14T09:19:59.998Z,1015.07
2018-03-14T09:21:27.362Z,1015.08
2018-03-14T09:22:54.808Z,1015.09
2018-03-14T09:24:21.795Z,1015.11
2018-03-14T09:25:49.048Z,1015.13
2018-03-14T09:27:16.179Z,1015.15
2018-03-14T09:28:43.549Z,1015.17
2018-03-14T09:30:10.835Z,1015.20
2018-03-14T09:31:38.024Z,1015.20
2018-03-14T09:33:05.150Z,1015.22
2018-03-14T09:34:32.077Z,1015.20
2018-03-14T09:35:59.342Z,1015.20
2018-03-14T09:37:26.582Z,1015.20
2018-03-14T09:38:53.972Z,1015.22
2018-03-14T09:40:21.282Z,1015.22
2018-03-14T09:41:48.486Z,1015.21
2018-03-14T09:43:15.688Z,1015.23
2018-03-14T09:44:43.018Z,1015.23
2018-03-14T09:46:10.236Z,1015.24
2018-03-14T09:47:37.434Z,1015.24
2018-03-14T09:49:04.444Z,1015.26
2018-03-14T09:50:31.794Z,1015.28
2018-03-14T09:51:58.994Z,1015.29
2018-03-14T09:53:26.356Z,1015.29
2018-03-14T09:54:53.502Z,1015.30
2018-03-14T09:56:20.778Z,1015.31
2018-03-14T09:57:47.992Z,1015.34
2018-03-14T09:59:15.385Z,1015.37
2018-03-14T10:00:42.550Z,1015.41
2018-03-14T10:02:09.804Z,1015.42
2018-03-14T10:03:37.102Z,1015.45
2018-03-14T10:05:04.278Z,1015.46
2018-03-14T10:06:31.471Z,1015.48
2018-03-14T10:07:58.683Z,1015.48
2018-03-14T10:09:26.048Z,1015.47
2018-03-14T10:10:53.358Z,1015.49
2018-03-14T10:12:20.688Z,1015.50
2018-03-14T10:13:47.952Z,1015.47
2018-03-14T10:15:15.161Z,1015.51
2018-03-14T10:16:42.548Z,1015.52
2018-03-14T10:18:10.023Z,1015.53
2018-03-14T10:19:37.248Z,1015.54
2018-03-14T10:21:04.406Z,1015.57
2018-03-14T10:22:31.614Z,1015.61
2018-03-14T10:23:58.901Z,1015.63
2018-03-14T10:25:26.098Z,1015.60
2018-03-14T10:26:53.392Z,1015.62
2018-03-14T10:28:20.579Z,1015.64
2018-03-14T10:29:47.752Z,1015.65
2018-03-14T10:31:14.900Z,1015.65
2018-03-14T10:32:42.204Z,1015.69
2018-03-14T10:34:09.284Z,1015.70
2018-03-14T10:35:36.426Z,1015.72
2018-03-14T10:37:03.513Z,1015.72
2018-03-14T10:38:30.815Z,1015.73
2018-03-14T10:39:58.068Z,1015.75
2018-03-14T10:41:25.244Z,1015.78
2018-03-14T10:42:52.531Z,1015.79
2018-03-14T10:44:19.626Z,1015.78
2018-03-14T10:45:46.629Z,1015.76
2018-03-14T10:47:13.791Z,1015.77
2018-03-14T10:48:41.028Z,1015.78
2018-03-14T10:50:08.318Z,1015.80
2018-03-14T10:51:35.418Z,1015.82
2018-03-14T10:53:02.809Z,1015.81
2018-03-14T10:54:30.074Z,1015.86
2018-03-14T10:55:57.328Z,1015.88
2018-03-14T10:57:24.540Z,1015.90
2018-03-14T10:58:51.777Z,1015.91
2018-03-14T11:00:19.155Z,1015.92
2018-03-14T11:01:46.335Z,1015.91
2018-03-14T11:03:13.652Z,1015.89
2018-03-14T11:04:40.831Z,1015.91
2018-03-14T11:06:08.193Z,1015.92
2018-03-14T11:07:34.938Z,1015.93
2018-03-14T11:09:02.185Z,1015.93
2018-03-14T11:10:29.413Z,1015.92
2018-03-14T11:11:56.786Z,1015.93
2018-03-14T11:13:24.127Z,1015.93
2018-03-14T11:14:51.285Z,1015.96
2018-03-14T11:16:18.607Z,1015.96
2018-03-14T11:17:45.990Z,1015.97
2018-03-14T11:19:13.036Z,1015.97
2018-03-14T11:20:40.223Z,1015.98
2018-03-14T11:22:07.352Z,1015.98
2018-03-14T11:23:34.512Z,1015.99
2018-03-14T11:25:01.754Z,1016.00
2018-03-14T11:26:28.909Z,1015.98
2018-03-14T11:27:56.172Z,1015.98
2018-03-14T11:29:23.468Z,1015.97
2018-03-14T11:30:50.855Z,1016.00
2018-03-14T11:32:17.999Z,1015.97
2018-03-14T11:33:45.226Z,1015.96
2018-03-14T11:35:12.397Z,1015.95
2018-03-14T11:36:39.641Z,1015.94
2018-03-14T11:38:06.707Z,1015.98
2018-03-14T11:39:33.725Z,1016.00
2018-03-14T11:41:00.916Z,1016.00
2018-03-14T11:42:28.304Z,1016.01
2018-03-14T11:43:55.557Z,1016.05
2018-03-14T11:45:22.780Z,1016.07
2018-03-14T11:46:49.993Z,1016.09
2018-03-14T11:48:17.092Z,1016.11
2018-03-14T11:49:44.399Z,1016.13
2018-03-14T11:51:11.506Z,1016.12
2018-03-14T11:52:38.656Z,1016.12
2018-03-14T11:54:05.979Z,1016.10
2018-03-14T11:55:33.239Z,1016.10
2018-03-14T11:57:00.533Z,1016.10
2018-03-14T11:58:27.770Z,1016.10
2018-03-14T11:59:54.949Z,1016.09
2018-03-14T12:01:22.006Z,1016.12
2018-03-14T12:02:49.384Z,1016.13
2018-03-14T12:04:16.555Z,1016.11
2018-03-14T12:05:44.002Z,1016.11
2018-03-14T12:07:11.161Z,1016.11
2018-03-14T12:08:38.379Z,1016.14
2018-03-14T12:10:05.498Z,1016.15
2018-03-14T12:11:32.787Z,1016.14
2018-03-14T12:13:00.053Z,1016.15
2018-03-14T12:14:27.396Z,1016.13
2018-03-14T12:15:54.676Z,1016.12
2018-03-14T12:17:21.945Z,1016.11
2018-03-14T12:18:49.321Z,1016.13
2018-03-14T12:20:16.664Z,1016.13
2018-03-14T12:21:43.810Z,1016.13
2018-03-14T12:23:10.884Z,1016.13
2018-03-14T12:24:38.097Z,1016.14
2018-03-14T12:26:05.289Z,1016.15
2018-03-14T12:27:32.431Z,1016.13
2018-03-14T12:28:59.636Z,1016.13
2018-03-14T12:30:27.049Z,1016.14
2018-03-14T12:31:54.446Z,1016.14
2018-03-14T12:33:21.817Z,1016.14
2018-03-14T12:34:49.158Z,1016.13
2018-03-14T12:36:16.526Z,1016.12
2018-03-14T12:37:43.653Z,1016.12
2018-03-14T12:39:10.826Z,1016.13
2018-03-14T12:40:38.031Z,1016.14
2018-03-14T12:42:05.260Z,1016.14
2018-03-14T12:43:32.518Z,1016.14
2018-03-14T12:44:59.828Z,1016.15
2018-03-14T12:46:27.170Z,1016.12
2018-03-14T12:47:54.397Z,1016.11
2018-03-14T12:49:21.723Z,1016.13
2018-03-14T12:50:48.999Z,1016.14
2018-03-14T12:52:16.240Z,1016.13
2018-03-14T12:53:43.636Z,1016.13
2018-03-14T12:55:10.789Z,1016.15
2018-03-14T12:56:38.113Z,1016.16
2018-03-14T12:58:05.453Z,1016.14
2018-03-14T12:59:32.694Z,1016.12
2018-03-14T13:00:59.834Z,1016.11
2018-03-14T13:02:27.236Z,1016.11
2018-03-14T13:03:54.585Z,1016.16
2018-03-14T13:05:21.754Z,1016.15
2018-03-14T13:06:49.245Z,1016.14
2018-03-14T13:08:16.372Z,1016.17
2018-03-14T13:09:43.508Z,1016.19
2018-03-14T13:11:10.651Z,1016.22
2018-03-14T13:12:37.815Z,1016.23
2018-03-14T13:14:05.041Z,1016.28
2018-03-14T13:15:32.267Z,1016.28
2018-03-14T13:16:59.521Z,1016.30
2018-03-14T13:18:26.840Z,1016.30
2018-03-14T13:19:53.949Z,1016.31
2018-03-14T13:21:21.316Z,1016.32
2018-03-14T13:22:48.643Z,1016.29
2018-03-14T13:24:15.806Z,1016.29
2018-03-14T13:25:42.901Z,1016.27
2018-03-14T13:27:10.256Z,1016.25
2018-03-14T13:28:37.572Z,1016.25
2018-03-14T13:30:04.731Z,1016.28
2018-03-14T13:31:31.737Z,1016.28
2018-03-14T13:32:58.884Z,1016.29
2018-03-14T13:34:26.187Z,1016.33
2018-03-14T13:35:53.562Z,1016.37
2018-03-14T13:37:20.912Z,1016.38
2018-03-14T13:38:48.137Z,1016.39
2018-03-14T13:40:15.491Z,1016.44
2018-03-14T13:41:42.747Z,1016.46
2018-03-14T13:43:09.935Z,1016.48
2018-03-14T13:44:37.318Z,1016.49
2018-03-14T13:46:04.569Z,1016.50
2018-03-14T13:47:31.814Z,1016.48
2018-03-14T13:48:58.909Z,1016.47
2018-03-14T13:50:26.097Z,1016.44
2018-03-14T13:51:53.443Z,1016.43
2018-03-14T13:53:20.608Z,1016.41
2018-03-14T13:54:47.783Z,1016.42
2018-03-14T13:56:15.038Z,1016.40
2018-03-14T13:57:42.238Z,1016.40
2018-03-14T13:59:09.359Z,1016.40
2018-03-14T14:00:36.480Z,1016.43
2018-03-14T14:02:03.702Z,1016.43
2018-03-14T14:03:30.854Z,1016.46
2018-03-14T14:04:58.027Z,1016.47
2018-03-14T14:06:25.170Z,1016.48
2018-03-14T14:07:52.401Z,1016.49
2018-03-14T14:09:19.494Z,1016.49
2018-03-14T14:10:46.793Z,1016.47
2018-03-14T14:12:14.000Z,1016.48
2018-03-14T14:13:41.170Z,1016.48
2018-03-14T14:15:08.340Z,1016.47
2018-03-14T14:16:35.511Z,1016.49
2018-03-14T14:18:02.753Z,1016.51
2018-03-14T14:19:29.785Z,1016.50
2018-03-14T14:20:56.981Z,1016.49
2018-03-14T14:22:24.316Z,1016.48
2018-03-14T14:23:51.510Z,1016.48
2018-03-14T14:25:18.680Z,1016.45
2018-03-14T14:26:46.128Z,1016.45
2018-03-14T14:28:13.083Z,1016.45
2018-03-14T14:29:40.288Z,1016.43
2018-03-14T14:31:07.499Z,1016.46
2018-03-14T14:32:34.759Z,1016.47
2018-03-14T14:34:01.905Z,1016.46
2018-03-14T14:35:29.140Z,1016.45
2018-03-14T14:36:56.463Z,1016.44
2018-03-14T14:38:23.793Z,1016.42
2018-03-14T14:39:51.091Z,1016.41
2018-03-14T14:41:18.439Z,1016.40
2018-03-14T14:42:45.814Z,1016.43
2018-03-14T14:44:13.018Z,1016.42
2018-03-14T14:45:40.192Z,1016.45
2018-03-14T14:47:07.512Z,1016.48
2018-03-14T14:48:34.689Z,1016.48
2018-03-14T14:50:01.942Z,1016.50
2018-03-14T14:51:29.258Z,1016.50
2018-03-14T14:52:56.457Z,1016.50
2018-03-14T14:54:23.694Z,1016.50
2018-03-14T14:55:50.865Z,1016.50
2018-03-14T14:57:18.243Z,1016.52
2018-03-14T14:58:45.561Z,1016.53
2018-03-14T15:00:12.858Z,1016.51
2018-03-14T15:01:40.120Z,1016.51
2018-03-14T15:03:07.389Z,1016.51
2018-03-14T15:04:34.535Z,1016.49
2018-03-14T15:06:01.817Z,1016.45
2018-03-14T15:07:29.045Z,1016.43
2018-03-14T15:08:56.534Z,1016.44
2018-03-14T15:10:23.543Z,1016.43
2018-03-14T15:11:50.827Z,1016.45
2018-03-14T15:13:18.188Z,1016.46
2018-03-14T15:14:45.361Z,1016.49
2018-03-14T15:16:12.677Z,1016.47
2018-03-14T15:17:39.967Z,1016.52
2018-03-14T15:19:07.384Z,1016.52
2018-03-14T15:20:34.311Z,1016.52
2018-03-14T15:22:01.586Z,1016.51
2018-03-14T15:23:28.779Z,1016.47
2018-03-14T15:24:55.975Z,1016.47
2018-03-14T15:26:23.179Z,1016.45
2018-03-14T15:27:50.538Z,1016.49
2018-03-14T15:29:17.790Z,1016.48
2018-03-14T15:30:45.167Z,1016.50
2018-03-14T15:32:12.380Z,1016.47
2018-03-14T15:33:39.620Z,1016.50
2018-03-14T15:35:06.877Z,1016.48
2018-03-14T15:36:33.975Z,1016.48
2018-03-14T15:38:01.103Z,1016.48
2018-03-14T15:39:28.445Z,1016.50
2018-03-14T15:40:55.667Z,1016.46
2018-03-14T15:42:23.056Z,1016.46
2018-03-14T15:43:50.206Z,1016.49
2018-03-14T15:45:17.629Z,1016.49
2018-03-14T15:46:44.859Z,1016.50
2018-03-14T15:48:12.136Z,1016.50
2018-03-14T15:49:39.264Z,1016.49
2018-03-14T15:51:06.355Z,1016.50
2018-03-14T15:52:33.515Z,1016.50
2018-03-14T15:54:00.828Z,1016.51
2018-03-14T15:55:28.051Z,1016.52
2018-03-14T15:56:55.440Z,1016.56
2018-03-14T15:58:22.724Z,1016.57
2018-03-14T15:59:50.054Z,1016.59
2018-03-14T16:01:17.281Z,1016.60
2018-03-14T16:02:44.644Z,1016.62
2018-03-14T16:04:11.888Z,1016.63
2018-03-14T16:05:39.158Z,1016.64
2018-03-14T16:07:06.407Z,1016.67
2018-03-14T16:08:33.124Z,1016.66
2018-03-14T16:10:00.534Z,1016.68
2018-03-14T16:11:27.795Z,1016.66
2018-03-14T16:12:54.813Z,1016.69
2018-03-14T16:14:22.025Z,1016.72
2018-03-14T16:15:48.768Z,1016.71
2018-03-14T16:17:16.141Z,1016.69
2018-03-14T16:18:43.306Z,1016.70
2018-03-14T16:20:10.612Z,1016.69
2018-03-14T16:21:37.756Z,1016.68
2018-03-14T16:23:04.925Z,1016.70
2018-03-14T16:24:32.232Z,1016.71
2018-03-14T16:25:59.526Z,1016.72
2018-03-14T16:27:26.988Z,1016.74
2018-03-14T16:28:54.297Z,1016.73
2018-03-14T16:30:21.466Z,1016.74
2018-03-14T16:31:48.679Z,1016.75
2018-03-14T16:33:16.119Z,1016.76
2018-03-14T16:34:43.321Z,1016.77
2018-03-14T16:36:10.672Z,1016.77
2018-03-14T16:37:37.687Z,1016.77
2018-03-14T16:39:04.866Z,1016.78
2018-03-14T16:40:32.114Z,1016.79
2018-03-14T16:41:59.242Z,1016.79
2018-03-14T16:43:26.532Z,1016.78
2018-03-14T16:44:53.904Z,1016.78
2018-03-14T16:46:21.202Z,1016.79
2018-03-14T16:47:48.385Z,1016.79
2018-03-14T16:49:15.368Z,1016.81
2018-03-14T16:50:42.483Z,1016.82
2018-03-14T16:52:09.740Z,1016.83
2018-03-14T16:53:36.699Z,1016.85
2018-03-14T16:55:03.553Z,1016.83
2018-03-14T16:56:30.870Z,1016.83
2018-03-14T16:57:58.079Z,1016.83
2018-03-14T16:59:25.467Z,1016.86
2018-03-14T17:00:52.804Z,1016.84
2018-03-14T17:02:19.940Z,1016.85
2018-03-14T17:03:47.040Z,1016.86
2018-03-14T17:05:14.358Z,1016.84
2018-03-14T17:06:41.430Z,1016.85
2018-03-14T17:08:08.693Z,1016.84
2018-03-14T17:09:35.971Z,1016.85
2018-03-14T17:11:03.253Z,1016.83
2018-03-14T17:12:30.245Z,1016.83
2018-03-14T17:13:57.580Z,1016.82
2018-03-14T17:15:24.747Z,1016.81
2018-03-14T17:16:51.844Z,1016.80
2018-03-14T17:18:19.088Z,1016.79
2018-03-14T17:19:46.158Z,1016.79
2018-03-14T17:21:13.516Z,1016.82
2018-03-14T17:22:40.727Z,1016.87
2018-03-14T17:24:08.013Z,1016.89
2018-03-14T17:25:35.059Z,1016.92
2018-03-14T17:27:02.380Z,1016.95
2018-03-14T17:28:29.648Z,1016.93
2018-03-14T17:29:56.908Z,1016.92
2018-03-14T17:31:24.087Z,1016.87
2018-03-14T17:32:51.390Z,1016.85
2018-03-14T17:34:18.615Z,1016.85